sensor_id;sensor_type;location;lat;lon;timestamp;pressure;altitude;pressure_sealevel;temperature
45393;BMP280;31129;44.810;10.334;2024-02-21T00:00:38;76600.09;;;11.23
45393;BMP280;31129;44.810;10.334;2024-02-21T00:03:05;76602.28;;;11.25
45393;BMP280;31129;44.810;10.334;2024-02-21T00:05:31;76605.00;;;11.28
45393;BMP280;31129;44.810;10.334;2024-02-21T00:07:58;76612.13;;;11.34
45393;BMP280;31129;44.810;10.334;2024-02-21T00:10:25;76610.50;;;11.33
45393;BMP280;31129;44.810;10.334;2024-02-21T00:12:51;76600.69;;;11.29
45393;BMP280;31129;44.810;10.334;2024-02-21T00:15:16;76601.19;;;11.27
45393;BMP280;31129;44.810;10.334;2024-02-21T00:17:43;76598.44;;;11.22
45393;BMP280;31129;44.810;10.334;2024-02-21T00:20:09;76595.72;;;11.19
45393;BMP280;31129;44.810;10.334;2024-02-21T00:22:35;76594.09;;;11.20
45393;BMP280;31129;44.810;10.334;2024-02-21T00:25:01;76590.81;;;11.17
45393;BMP280;31129;44.810;10.334;2024-02-21T00:27:27;76594.03;;;11.15
45393;BMP280;31129;44.810;10.334;2024-02-21T00:29:53;76584.22;;;11.09
45393;BMP280;31129;44.810;10.334;2024-02-21T00:32:18;76583.13;;;11.10
45393;BMP280;31129;44.810;10.334;2024-02-21T00:34:43;76588.03;;;11.12
45393;BMP280;31129;44.810;10.334;2024-02-21T00:37:09;76580.94;;;11.06
45393;BMP280;31129;44.810;10.334;2024-02-21T00:39:34;76567.31;;;11.00
45393;BMP280;31129;44.810;10.334;2024-02-21T00:42:00;76558.50;;;10.87
45393;BMP280;31129;44.810;10.334;2024-02-21T00:44:26;76555.78;;;10.85
45393;BMP280;31129;44.810;10.334;2024-02-21T00:46:51;76552.47;;;10.82
45393;BMP280;31129;44.810;10.334;2024-02-21T00:49:18;76553.03;;;10.82
45393;BMP280;31129;44.810;10.334;2024-02-21T00:51:43;76556.84;;;10.86
45393;BMP280;31129;44.810;10.334;2024-02-21T00:54:09;76556.28;;;10.83
45393;BMP280;31129;44.810;10.334;2024-02-21T00:56:34;76551.88;;;10.76
45393;BMP280;31129;44.810;10.334;2024-02-21T00:59:00;76547.03;;;10.77
45393;BMP280;31129;44.810;10.334;2024-02-21T01:01:25;76541.50;;;10.69
45393;BMP280;31129;44.810;10.334;2024-02-21T01:03:51;76551.34;;;10.76
45393;BMP280;31129;44.810;10.334;2024-02-21T01:06:20;76543.66;;;10.68
45393;BMP280;31129;44.810;10.334;2024-02-21T01:08:49;76538.25;;;10.68
45393;BMP280;31129;44.810;10.334;2024-02-21T01:11:15;76528.38;;;10.57
45393;BMP280;31129;44.810;10.334;2024-02-21T01:13:41;76519.06;;;10.48
45393;BMP280;31129;44.810;10.334;2024-02-21T01:16:07;76517.41;;;10.47
45393;BMP280;31129;44.810;10.334;2024-02-21T01:18:33;76515.22;;;10.42
45393;BMP280;31129;44.810;10.334;2024-02-21T01:20:59;76510.84;;;10.41
45393;BMP280;31129;44.810;10.334;2024-02-21T01:23:24;76514.72;;;10.47
45393;BMP280;31129;44.810;10.334;2024-02-21T01:25:50;76520.69;;;10.50
45393;BMP280;31129;44.810;10.334;2024-02-21T01:28:16;76517.41;;;10.44
45393;BMP280;31129;44.810;10.334;2024-02-21T01:30:42;76500.47;;;10.33
45393;BMP280;31129;44.810;10.334;2024-02-21T01:33:07;76486.78;;;10.21
45393;BMP280;31129;44.810;10.334;2024-02-21T01:35:34;76481.84;;;10.14
45393;BMP280;31129;44.810;10.334;2024-02-21T01:37:59;76490.63;;;10.24
45393;BMP280;31129;44.810;10.334;2024-02-21T01:40:25;76482.94;;;10.15
45393;BMP280;31129;44.810;10.334;2024-02-21T01:42:50;76486.75;;;10.16
45393;BMP280;31129;44.810;10.334;2024-02-21T01:45:19;76476.94;;;10.12
45393;BMP280;31129;44.810;10.334;2024-02-21T01:47:44;76473.13;;;10.08
45393;BMP280;31129;44.810;10.334;2024-02-21T01:50:11;76491.69;;;10.23
45393;BMP280;31129;44.810;10.334;2024-02-21T01:52:38;76496.59;;;10.25
45393;BMP280;31129;44.810;10.334;2024-02-21T01:55:05;76492.78;;;10.24
45393;BMP280;31129;44.810;10.334;2024-02-21T01:57:30;76498.25;;;10.29
45393;BMP280;31129;44.810;10.334;2024-02-21T01:59:56;76496.63;;;10.27
45393;BMP280;31129;44.810;10.334;2024-02-21T02:02:22;76488.41;;;10.20
45393;BMP280;31129;44.810;10.334;2024-02-21T02:04:48;76485.13;;;10.17
45393;BMP280;31129;44.810;10.334;2024-02-21T02:07:14;76483.47;;;10.15
45393;BMP280;31129;44.810;10.334;2024-02-21T02:09:39;76472.53;;;10.05
45393;BMP280;31129;44.810;10.334;2024-02-21T02:12:05;76468.22;;;10.06
45393;BMP280;31129;44.810;10.334;2024-02-21T02:14:31;76476.91;;;10.09
45393;BMP280;31129;44.810;10.334;2024-02-21T02:16:56;76476.88;;;10.07
45393;BMP280;31129;44.810;10.334;2024-02-21T02:19:22;76470.38;;;10.06
45393;BMP280;31129;44.810;10.334;2024-02-21T02:21:51;76473.66;;;10.09
45393;BMP280;31129;44.810;10.334;2024-02-21T02:24:21;76469.78;;;10.03
45393;BMP280;31129;44.810;10.334;2024-02-21T02:26:47;76482.91;;;10.12
45393;BMP280;31129;44.810;10.334;2024-02-21T02:29:12;76465.47;;;10.04
45393;BMP280;31129;44.810;10.334;2024-02-21T02:31:38;76470.94;;;10.09
45393;BMP280;31129;44.810;10.334;2024-02-21T02:34:04;76470.34;;;10.03
45393;BMP280;31129;44.810;10.334;2024-02-21T02:36:32;76475.22;;;10.05
45393;BMP280;31129;44.810;10.334;2024-02-21T02:38:58;76468.13;;;9.98
45393;BMP280;31129;44.810;10.334;2024-02-21T02:41:23;76469.81;;;10.05
45393;BMP280;31129;44.810;10.334;2024-02-21T02:43:49;76471.97;;;10.05
45393;BMP280;31129;44.810;10.334;2024-02-21T02:46:14;76462.13;;;9.95
45393;BMP280;31129;44.810;10.334;2024-02-21T02:48:40;76457.75;;;9.91
45393;BMP280;31129;44.810;10.334;2024-02-21T02:51:06;76457.75;;;9.91
45393;BMP280;31129;44.810;10.334;2024-02-21T02:53:31;76455.06;;;9.91
45393;BMP280;31129;44.810;10.334;2024-02-21T02:55:57;76453.97;;;9.90
45393;BMP280;31129;44.810;10.334;2024-02-21T02:58:23;76445.66;;;9.78
45393;BMP280;31129;44.810;10.334;2024-02-21T03:00:48;76436.91;;;9.70
45393;BMP280;31129;44.810;10.334;2024-02-21T03:03:14;76441.34;;;9.76
45393;BMP280;31129;44.810;10.334;2024-02-21T03:05:39;76441.88;;;9.77
45393;BMP280;31129;44.810;10.334;2024-02-21T03:08:05;76442.47;;;9.80
45393;BMP280;31129;44.810;10.334;2024-02-21T03:10:35;76441.97;;;9.82
45393;BMP280;31129;44.810;10.334;2024-02-21T03:13:01;76441.84;;;9.74
45393;BMP280;31129;44.810;10.334;2024-02-21T03:15:26;76452.81;;;9.84
45393;BMP280;31129;44.810;10.334;2024-02-21T03:17:52;76450.66;;;9.85
45393;BMP280;31129;44.810;10.334;2024-02-21T03:20:17;76438.56;;;9.71
45393;BMP280;31129;44.810;10.334;2024-02-21T03:22:45;76435.31;;;9.71
45393;BMP280;31129;44.810;10.334;2024-02-21T03:25:11;76412.88;;;9.50
45393;BMP280;31129;44.810;10.334;2024-02-21T03:27:38;76418.81;;;9.50
45393;BMP280;31129;44.810;10.334;2024-02-21T03:30:04;76413.38;;;9.48
45393;BMP280;31129;44.810;10.334;2024-02-21T03:32:30;76406.84;;;9.44
45393;BMP280;31129;44.810;10.334;2024-02-21T03:34:56;76412.28;;;9.47
45393;BMP280;31129;44.810;10.334;2024-02-21T03:37:21;76410.13;;;9.47
45393;BMP280;31129;44.810;10.334;2024-02-21T03:39:47;76414.53;;;9.51
45393;BMP280;31129;44.810;10.334;2024-02-21T03:42:12;76407.94;;;9.45
45393;BMP280;31129;44.810;10.334;2024-02-21T03:44:39;76420.50;;;9.54
45393;BMP280;31129;44.810;10.334;2024-02-21T03:47:04;76399.25;;;9.42
45393;BMP280;31129;44.810;10.334;2024-02-21T03:49:30;76415.63;;;9.52
45393;BMP280;31129;44.810;10.334;2024-02-21T03:51:55;76420.47;;;9.52
45393;BMP280;31129;44.810;10.334;2024-02-21T03:54:21;76418.41;;;9.57
45393;BMP280;31129;44.810;10.334;2024-02-21T03:56:47;76396.47;;;9.35
45393;BMP280;31129;44.810;10.334;2024-02-21T03:59:15;76394.81;;;9.33
45393;BMP280;31129;44.810;10.334;2024-02-21T04:01:40;76392.06;;;9.28
45393;BMP280;31129;44.810;10.334;2024-02-21T04:04:06;76387.75;;;9.32
45393;BMP280;31129;44.810;10.334;2024-02-21T04:06:32;76404.66;;;9.40
45393;BMP280;31129;44.810;10.334;2024-02-21T04:08:57;76385.53;;;9.24
45393;BMP280;31129;44.810;10.334;2024-02-21T04:11:23;76388.84;;;9.30
45393;BMP280;31129;44.810;10.334;2024-02-21T04:13:48;76381.16;;;9.20
45393;BMP280;31129;44.810;10.334;2024-02-21T04:16:16;76388.22;;;9.24
45393;BMP280;31129;44.810;10.334;2024-02-21T04:18:42;76387.16;;;9.26
45393;BMP280;31129;44.810;10.334;2024-02-21T04:21:09;76390.97;;;9.27
45393;BMP280;31129;44.810;10.334;2024-02-21T04:23:34;76369.66;;;9.10
45393;BMP280;31129;44.810;10.334;2024-02-21T04:26:00;76365.88;;;9.09
45393;BMP280;31129;44.810;10.334;2024-02-21T04:28:25;76365.81;;;9.06
45393;BMP280;31129;44.810;10.334;2024-02-21T04:30:51;76369.16;;;9.12
45393;BMP280;31129;44.810;10.334;2024-02-21T04:33:16;76375.13;;;9.15
45393;BMP280;31129;44.810;10.334;2024-02-21T04:35:42;76380.63;;;9.20
45393;BMP280;31129;44.810;10.334;2024-02-21T04:38:07;76377.91;;;9.20
45393;BMP280;31129;44.810;10.334;2024-02-21T04:40:33;76369.69;;;9.12
45393;BMP280;31129;44.810;10.334;2024-02-21T04:42:58;76368.06;;;9.11
45393;BMP280;31129;44.810;10.334;2024-02-21T04:45:24;76366.38;;;9.07
45393;BMP280;31129;44.810;10.334;2024-02-21T04:47:49;76366.41;;;9.09
45393;BMP280;31129;44.810;10.334;2024-02-21T04:50:14;76364.81;;;9.10
45393;BMP280;31129;44.810;10.334;2024-02-21T04:52:40;76365.25;;;9.03
45393;BMP280;31129;44.810;10.334;2024-02-21T04:55:06;76371.84;;;9.12
45393;BMP280;31129;44.810;10.334;2024-02-21T04:57:32;76365.31;;;9.08
45393;BMP280;31129;44.810;10.334;2024-02-21T04:59:58;76345.63;;;8.90
45393;BMP280;31129;44.810;10.334;2024-02-21T05:02:23;76348.31;;;8.90
45393;BMP280;31129;44.810;10.334;2024-02-21T05:04:50;76351.63;;;8.95
45393;BMP280;31129;44.810;10.334;2024-02-21T05:07:16;76354.91;;;8.99
45393;BMP280;31129;44.810;10.334;2024-02-21T05:09:42;76352.66;;;8.91
45393;BMP280;31129;44.810;10.334;2024-02-21T05:12:08;76341.78;;;8.86
45393;BMP280;31129;44.810;10.334;2024-02-21T05:14:34;76344.47;;;8.86
45393;BMP280;31129;44.810;10.334;2024-02-21T05:16:59;76346.06;;;8.85
45393;BMP280;31129;44.810;10.334;2024-02-21T05:19:25;76335.22;;;8.80
45393;BMP280;31129;44.810;10.334;2024-02-21T05:21:50;76342.31;;;8.87
45393;BMP280;31129;44.810;10.334;2024-02-21T05:24:16;76344.97;;;8.84
45393;BMP280;31129;44.810;10.334;2024-02-21T05:26:42;76339.53;;;8.79
45393;BMP280;31129;44.810;10.334;2024-02-21T05:29:07;76332.50;;;8.78
45393;BMP280;31129;44.810;10.334;2024-02-21T05:34:20;76330.22;;;8.71
45393;BMP280;31129;44.810;10.334;2024-02-21T05:36:46;76336.78;;;8.77
45393;BMP280;31129;44.810;10.334;2024-02-21T05:39:13;76320.41;;;8.64
45393;BMP280;31129;44.810;10.334;2024-02-21T05:41:38;76330.25;;;8.73
45393;BMP280;31129;44.810;10.334;2024-02-21T05:44:04;76348.31;;;8.90
45393;BMP280;31129;44.810;10.334;2024-02-21T05:46:30;76325.84;;;8.67
45393;BMP280;31129;44.810;10.334;2024-02-21T05:48:55;76326.94;;;8.68
45393;BMP280;31129;44.810;10.334;2024-02-21T05:51:21;76330.22;;;8.71
45393;BMP280;31129;44.810;10.334;2024-02-21T05:53:46;76329.72;;;8.73
45393;BMP280;31129;44.810;10.334;2024-02-21T05:56:13;76315.53;;;8.62
45393;BMP280;31129;44.810;10.334;2024-02-21T05:58:39;76327.56;;;8.73
45393;BMP280;31129;44.810;10.334;2024-02-21T06:01:05;76337.44;;;8.85
45393;BMP280;31129;44.810;10.334;2024-02-21T06:03:32;76325.97;;;8.74
45393;BMP280;31129;44.810;10.334;2024-02-21T06:05:59;76319.34;;;8.63
45393;BMP280;31129;44.810;10.334;2024-02-21T06:08:24;76344.44;;;8.84
45393;BMP280;31129;44.810;10.334;2024-02-21T06:10:50;76315.50;;;8.59
45393;BMP280;31129;44.810;10.334;2024-02-21T06:13:20;76330.22;;;8.71
45393;BMP280;31129;44.810;10.334;2024-02-21T06:15:47;76322.03;;;8.66
45393;BMP280;31129;44.810;10.334;2024-02-21T06:18:12;76325.34;;;8.69
45393;BMP280;31129;44.810;10.334;2024-02-21T06:20:38;76327.56;;;8.73
45393;BMP280;31129;44.810;10.334;2024-02-21T06:23:06;76315.50;;;8.59
45393;BMP280;31129;44.810;10.334;2024-02-21T06:25:31;76329.09;;;8.67
45393;BMP280;31129;44.810;10.334;2024-02-21T06:27:57;76326.94;;;8.68
45393;BMP280;31129;44.810;10.334;2024-02-21T06:30:23;76339.47;;;8.77
45393;BMP280;31129;44.810;10.334;2024-02-21T06:32:48;76327.47;;;8.68
45393;BMP280;31129;44.810;10.334;2024-02-21T06:35:14;76324.75;;;8.66
45393;BMP280;31129;44.810;10.334;2024-02-21T06:37:39;76336.25;;;8.76
45393;BMP280;31129;44.810;10.334;2024-02-21T06:40:05;76337.34;;;8.77
45393;BMP280;31129;44.810;10.334;2024-02-21T06:42:31;76326.38;;;8.67
45393;BMP280;31129;44.810;10.334;2024-02-21T06:44:56;76324.28;;;8.70
45393;BMP280;31129;44.810;10.334;2024-02-21T06:47:22;76340.06;;;8.80
45393;BMP280;31129;44.810;10.334;2024-02-21T06:49:51;76330.25;;;8.73
45393;BMP280;31129;44.810;10.334;2024-02-21T06:52:20;76333.59;;;8.79
45393;BMP280;31129;44.810;10.334;2024-02-21T06:54:46;76346.59;;;8.83
45393;BMP280;31129;44.810;10.334;2024-02-21T06:57:13;76337.91;;;8.80
45393;BMP280;31129;44.810;10.334;2024-02-21T06:59:40;76346.13;;;8.88
45393;BMP280;31129;44.810;10.334;2024-02-21T07:02:05;76349.38;;;8.88
45393;BMP280;31129;44.810;10.334;2024-02-21T07:04:31;76342.81;;;8.85
45393;BMP280;31129;44.810;10.334;2024-02-21T07:06:56;76340.63;;;8.80
45393;BMP280;31129;44.810;10.334;2024-02-21T07:09:22;76351.56;;;8.90
45393;BMP280;31129;44.810;10.334;2024-02-21T07:11:47;76349.44;;;8.93
45393;BMP280;31129;44.810;10.334;2024-02-21T07:14:14;76346.19;;;8.90
45393;BMP280;31129;44.810;10.334;2024-02-21T07:16:40;76358.13;;;8.97
45393;BMP280;31129;44.810;10.334;2024-02-21T07:19:06;76355.41;;;8.97
45393;BMP280;31129;44.810;10.334;2024-02-21T07:21:31;76359.25;;;9.00
45393;BMP280;31129;44.810;10.334;2024-02-21T07:23:58;76358.66;;;8.97
45393;BMP280;31129;44.810;10.334;2024-02-21T07:26:24;76365.81;;;9.06
45393;BMP280;31129;44.810;10.334;2024-02-21T07:28:49;76378.41;;;9.18
45393;BMP280;31129;44.810;10.334;2024-02-21T07:31:15;76371.31;;;9.14
45393;BMP280;31129;44.810;10.334;2024-02-21T07:33:40;76387.16;;;9.26
45393;BMP280;31129;44.810;10.334;2024-02-21T07:36:07;76399.22;;;9.37
45393;BMP280;31129;44.810;10.334;2024-02-21T07:38:34;76398.69;;;9.39
45393;BMP280;31129;44.810;10.334;2024-02-21T07:40:59;76392.09;;;9.31
45393;BMP280;31129;44.810;10.334;2024-02-21T07:43:25;76402.97;;;9.36
45393;BMP280;31129;44.810;10.334;2024-02-21T07:45:52;76401.41;;;9.42
45393;BMP280;31129;44.810;10.334;2024-02-21T07:48:21;76416.72;;;9.53
45393;BMP280;31129;44.810;10.334;2024-02-21T07:50:50;76421.59;;;9.55
45393;BMP280;31129;44.810;10.334;2024-02-21T07:53:16;76419.44;;;9.56
45393;BMP280;31129;44.810;10.334;2024-02-21T07:55:42;76428.25;;;9.67
45393;BMP280;31129;44.810;10.334;2024-02-21T07:58:07;76422.75;;;9.61
45393;BMP280;31129;44.810;10.334;2024-02-21T08:00:33;76430.91;;;9.64
45393;BMP280;31129;44.810;10.334;2024-02-21T08:02:58;76435.34;;;9.73
45393;BMP280;31129;44.810;10.334;2024-02-21T08:05:24;76444.03;;;9.76
45393;BMP280;31129;44.810;10.334;2024-02-21T08:07:50;76449.00;;;9.83
45393;BMP280;31129;44.810;10.334;2024-02-21T08:10:15;76455.56;;;9.89
45393;BMP280;31129;44.810;10.334;2024-02-21T08:12:41;76454.50;;;9.91
45393;BMP280;31129;44.810;10.334;2024-02-21T08:15:07;76459.94;;;9.93
45393;BMP280;31129;44.810;10.334;2024-02-21T08:17:36;76473.59;;;10.04
45393;BMP280;31129;44.810;10.334;2024-02-21T08:20:03;76471.41;;;10.02
45393;BMP280;31129;44.810;10.334;2024-02-21T08:22:29;76464.91;;;10.01
45393;BMP280;31129;44.810;10.334;2024-02-21T08:24:55;76489.53;;;10.23
45393;BMP280;31129;44.810;10.334;2024-02-21T08:27:20;76482.97;;;10.17
45393;BMP280;31129;44.810;10.334;2024-02-21T08:29:46;76476.88;;;10.07
45393;BMP280;31129;44.810;10.334;2024-02-21T08:32:12;76480.22;;;10.15
45393;BMP280;31129;44.810;10.334;2024-02-21T08:34:37;76479.09;;;10.11
45393;BMP280;31129;44.810;10.334;2024-02-21T08:37:03;76487.88;;;10.22
45393;BMP280;31129;44.810;10.334;2024-02-21T08:39:29;76485.69;;;10.20
45393;BMP280;31129;44.810;10.334;2024-02-21T08:41:56;76476.44;;;10.14
45393;BMP280;31129;44.810;10.334;2024-02-21T08:44:25;76483.47;;;10.15
45393;BMP280;31129;44.810;10.334;2024-02-21T08:46:51;76502.06;;;10.30
45393;BMP280;31129;44.810;10.334;2024-02-21T08:52:22;76516.31;;;10.46
45393;BMP280;31129;44.810;10.334;2024-02-21T08:54:48;76513.66;;;10.48
45393;BMP280;31129;44.810;10.334;2024-02-21T08:57:13;76532.75;;;10.61
45393;BMP280;31129;44.810;10.334;2024-02-21T08:59:39;76548.09;;;10.75
45393;BMP280;31129;44.810;10.334;2024-02-21T09:02:05;76539.31;;;10.67
45393;BMP280;31129;44.810;10.334;2024-02-21T09:04:32;76531.66;;;10.60
45393;BMP280;31129;44.810;10.334;2024-02-21T09:06:58;76534.97;;;10.65
45393;BMP280;31129;44.810;10.334;2024-02-21T09:09:24;76552.47;;;10.82
45393;BMP280;31129;44.810;10.334;2024-02-21T09:11:49;76569.97;;;10.95
45393;BMP280;31129;44.810;10.334;2024-02-21T09:14:15;76571.66;;;10.99
45393;BMP280;31129;44.810;10.334;2024-02-21T09:16:41;76591.34;;;11.18
45393;BMP280;31129;44.810;10.334;2024-02-21T09:19:06;76590.78;;;11.15
45393;BMP280;31129;44.810;10.334;2024-02-21T09:21:36;76600.66;;;11.26
45393;BMP280;31129;44.810;10.334;2024-02-21T09:24:01;76612.16;;;11.37
45393;BMP280;31129;44.810;10.334;2024-02-21T09:26:27;76607.75;;;11.30
45393;BMP280;31129;44.810;10.334;2024-02-21T09:28:53;76620.34;;;11.42
45393;BMP280;31129;44.810;10.334;2024-02-21T09:31:19;76625.84;;;11.47
45393;BMP280;31129;44.810;10.334;2024-02-21T09:33:45;76625.31;;;11.49
45393;BMP280;31129;44.810;10.334;2024-02-21T09:36:10;76619.28;;;11.44
45393;BMP280;31129;44.810;10.334;2024-02-21T09:38:36;76634.03;;;11.55
45393;BMP280;31129;44.810;10.334;2024-02-21T09:41:19;76641.72;;;11.64
45393;BMP280;31129;44.810;10.334;2024-02-21T09:43:49;76653.25;;;11.78
45393;BMP280;31129;44.810;10.334;2024-02-21T09:46:16;76665.25;;;11.84
45393;BMP280;31129;44.810;10.334;2024-02-21T09:51:30;76687.75;;;12.09
45393;BMP280;31129;44.810;10.334;2024-02-21T09:53:58;76697.03;;;12.16
45393;BMP280;31129;44.810;10.334;2024-02-21T09:56:24;76693.19;;;12.09
45393;BMP280;31129;44.810;10.334;2024-02-21T09:58:50;76730.47;;;12.47
45393;BMP280;31129;44.810;10.334;2024-02-21T10:01:15;76714.53;;;12.29
45393;BMP280;31129;44.810;10.334;2024-02-21T10:03:41;76694.91;;;12.19
45393;BMP280;31129;44.810;10.334;2024-02-21T10:06:09;76716.75;;;12.34
45393;BMP280;31129;44.810;10.334;2024-02-21T10:08:34;76730.47;;;12.47
45393;BMP280;31129;44.810;10.334;2024-02-21T10:11:00;76730.47;;;12.47
45393;BMP280;31129;44.810;10.334;2024-02-21T10:13:28;76718.97;;;12.38
45393;BMP280;31129;44.810;10.334;2024-02-21T10:16:06;76730.44;;;12.44
45393;BMP280;31129;44.810;10.334;2024-02-21T10:18:32;76737.56;;;12.53
45393;BMP280;31129;44.810;10.334;2024-02-21T10:21:04;76747.97;;;12.63
45393;BMP280;31129;44.810;10.334;2024-02-21T10:23:51;76749.63;;;12.64
45393;BMP280;31129;44.810;10.334;2024-02-21T10:26:20;76758.97;;;12.75
45393;BMP280;31129;44.810;10.334;2024-02-21T10:28:49;76774.84;;;12.88
45393;BMP280;31129;44.810;10.334;2024-02-21T10:33:58;76788.53;;;13.03
45393;BMP280;31129;44.810;10.334;2024-02-21T10:36:24;76802.25;;;13.15
45393;BMP280;31129;44.810;10.334;2024-02-21T10:38:51;76798.97;;;13.15
45393;BMP280;31129;44.810;10.334;2024-02-21T10:41:19;76794.53;;;13.06
45393;BMP280;31129;44.810;10.334;2024-02-21T10:43:49;76819.22;;;13.31
45393;BMP280;31129;44.810;10.334;2024-02-21T10:46:19;76826.84;;;13.36
45393;BMP280;31129;44.810;10.334;2024-02-21T10:48:46;76827.44;;;13.39
45393;BMP280;31129;44.810;10.334;2024-02-21T10:53:45;76821.97;;;13.34
45393;BMP280;31129;44.810;10.334;2024-02-21T10:58:53;76832.34;;;13.41
45393;BMP280;31129;44.810;10.334;2024-02-21T11:01:21;76832.88;;;13.41
45393;BMP280;31129;44.810;10.334;2024-02-21T11:03:49;76847.13;;;13.54
45393;BMP280;31129;44.810;10.334;2024-02-21T11:06:16;76849.38;;;13.62
45393;BMP280;31129;44.810;10.334;2024-02-21T11:08:43;76873.44;;;13.79
45393;BMP280;31129;44.810;10.334;2024-02-21T11:11:12;76870.72;;;13.81
45393;BMP280;31129;44.810;10.334;2024-02-21T11:13:42;76872.34;;;13.80
45393;BMP280;31129;44.810;10.334;2024-02-21T11:16:09;76872.91;;;13.81
45393;BMP280;31129;44.810;10.334;2024-02-21T11:18:39;76875.13;;;13.88
45393;BMP280;31129;44.810;10.334;2024-02-21T11:21:05;76891.00;;;14.00
45393;BMP280;31129;44.810;10.334;2024-02-21T11:23:31;76904.72;;;14.13
45393;BMP280;31129;44.810;10.334;2024-02-21T11:26:09;76895.97;;;14.07
45393;BMP280;31129;44.810;10.334;2024-02-21T11:28:35;76910.72;;;14.18
45393;BMP280;31129;44.810;10.334;2024-02-21T11:31:12;76915.13;;;14.22
45393;BMP280;31129;44.810;10.334;2024-02-21T11:33:41;76905.81;;;14.16
45393;BMP280;31129;44.810;10.334;2024-02-21T11:36:10;76920.03;;;14.22
45393;BMP280;31129;44.810;10.334;2024-02-21T11:38:36;76935.94;;;14.39
45393;BMP280;31129;44.810;10.334;2024-02-21T11:41:02;76936.50;;;14.42
45393;BMP280;31129;44.810;10.334;2024-02-21T11:43:28;76952.34;;;14.52
45393;BMP280;31129;44.810;10.334;2024-02-21T11:46:02;76945.22;;;14.45
45393;BMP280;31129;44.810;10.334;2024-02-21T11:48:29;76956.75;;;14.58
45393;BMP280;31129;44.810;10.334;2024-02-21T11:50:55;76945.78;;;14.46
45393;BMP280;31129;44.810;10.334;2024-02-21T11:53:21;76980.84;;;14.78
45393;BMP280;31129;44.810;10.334;2024-02-21T11:55:47;76979.75;;;14.80
45393;BMP280;31129;44.810;10.334;2024-02-21T11:58:12;76977.59;;;14.83
45393;BMP280;31129;44.810;10.334;2024-02-21T12:00:38;76988.56;;;14.90
45393;BMP280;31129;44.810;10.334;2024-02-21T12:03:04;76996.19;;;14.95
45393;BMP280;31129;44.810;10.334;2024-02-21T12:05:31;77008.25;;;15.06
45393;BMP280;31129;44.810;10.334;2024-02-21T12:07:57;77014.84;;;15.12
45393;BMP280;31129;44.810;10.334;2024-02-21T12:10:25;77010.44;;;15.06
45393;BMP280;31129;44.810;10.334;2024-02-21T12:12:51;77018.16;;;15.15
45393;BMP280;31129;44.810;10.334;2024-02-21T12:15:18;77035.13;;;15.31
45393;BMP280;31129;44.810;10.334;2024-02-21T12:17:44;77049.41;;;15.47
45393;BMP280;31129;44.810;10.334;2024-02-21T12:20:10;77049.91;;;15.42
45393;BMP280;31129;44.810;10.334;2024-02-21T12:22:41;77054.88;;;15.49
45393;BMP280;31129;44.810;10.334;2024-02-21T12:25:16;77063.06;;;15.57
45393;BMP280;31129;44.810;10.334;2024-02-21T12:27:46;77057.03;;;15.51
45393;BMP280;31129;44.810;10.334;2024-02-21T12:30:12;77087.72;;;15.72
45393;BMP280;31129;44.810;10.334;2024-02-21T12:32:37;77084.47;;;15.76
45393;BMP280;31129;44.810;10.334;2024-02-21T12:35:03;77091.59;;;15.83
45393;BMP280;31129;44.810;10.334;2024-02-21T12:37:29;77092.69;;;15.84
45393;BMP280;31129;44.810;10.334;2024-02-21T12:39:54;77093.22;;;15.85
45393;BMP280;31129;44.810;10.334;2024-02-21T12:42:20;77107.47;;;15.93
45393;BMP280;31129;44.810;10.334;2024-02-21T12:44:46;77133.78;;;16.20
45393;BMP280;31129;44.810;10.334;2024-02-21T12:47:11;77113.00;;;16.05
45393;BMP280;31129;44.810;10.334;2024-02-21T12:49:37;77109.13;;;16.02
45393;BMP280;31129;44.810;10.334;2024-02-21T12:52:03;77137.66;;;16.26
45393;BMP280;31129;44.810;10.334;2024-02-21T12:54:29;77153.56;;;16.40
45393;BMP280;31129;44.810;10.334;2024-02-21T12:56:56;77183.19;;;16.68
45393;BMP280;31129;44.810;10.334;2024-02-21T12:59:22;77189.19;;;16.76
45393;BMP280;31129;44.810;10.334;2024-02-21T13:01:48;77174.94;;;16.58
45393;BMP280;31129;44.810;10.334;2024-02-21T13:04:13;77176.56;;;16.62
45393;BMP280;31129;44.810;10.334;2024-02-21T13:06:39;77198.53;;;16.82
45393;BMP280;31129;44.810;10.334;2024-02-21T13:09:04;77233.59;;;17.12
45393;BMP280;31129;44.810;10.334;2024-02-21T13:11:34;77268.69;;;17.44
45393;BMP280;31129;44.810;10.334;2024-02-21T13:13:59;77291.19;;;17.70
45393;BMP280;31129;44.810;10.334;2024-02-21T13:16:25;77248.44;;;17.28
45393;BMP280;31129;44.810;10.334;2024-02-21T13:18:51;77257.19;;;17.36
45393;BMP280;31129;44.810;10.334;2024-02-21T13:21:17;77280.22;;;17.55
45393;BMP280;31129;44.810;10.334;2024-02-21T13:23:42;77300.53;;;17.76
45393;BMP280;31129;44.810;10.334;2024-02-21T13:26:10;77282.94;;;17.55
45393;BMP280;31129;44.810;10.334;2024-02-21T13:28:35;77272.56;;;17.48
45393;BMP280;31129;44.810;10.334;2024-02-21T13:31:01;77304.91;;;17.80
45393;BMP280;31129;44.810;10.334;2024-02-21T13:33:26;77330.16;;;18.03
45393;BMP280;31129;44.810;10.334;2024-02-21T13:35:53;77323.00;;;17.94
45393;BMP280;31129;44.810;10.334;2024-02-21T13:38:19;77334.53;;;18.02
45393;BMP280;31129;44.810;10.334;2024-02-21T13:40:45;77359.75;;;18.31
45393;BMP280;31129;44.810;10.334;2024-02-21T13:43:11;77382.81;;;18.49
45393;BMP280;31129;44.810;10.334;2024-02-21T13:45:37;77386.63;;;18.56
45393;BMP280;31129;44.810;10.334;2024-02-21T13:48:03;77341.09;;;18.13
45393;BMP280;31129;44.810;10.334;2024-02-21T13:50:31;77347.16;;;18.22
45393;BMP280;31129;44.810;10.334;2024-02-21T13:52:57;77327.38;;;17.98
45393;BMP280;31129;44.810;10.334;2024-02-21T13:55:23;77336.19;;;18.06
45393;BMP280;31129;44.810;10.334;2024-02-21T13:57:51;77330.72;;;18.06
45393;BMP280;31129;44.810;10.334;2024-02-21T14:00:17;77326.84;;;17.98
45393;BMP280;31129;44.810;10.334;2024-02-21T14:02:43;77347.16;;;18.22
45393;BMP280;31129;44.810;10.334;2024-02-21T14:05:09;77340.56;;;18.16
45393;BMP280;31129;44.810;10.334;2024-02-21T14:07:35;77374.03;;;18.44
45393;BMP280;31129;44.810;10.334;2024-02-21T14:10:01;77355.38;;;18.27
45393;BMP280;31129;44.810;10.334;2024-02-21T14:12:27;77335.06;;;18.03